Time;durP1;ratioP1;P1;durP2;ratioP2;P2;SDS_P1;SDS_P2;PMS_P1;PMS_P2;Temp;Humidity;BMP_temperature;BMP_pressure;BME280_temperature;BME280_humidity;BME280_pressure;Samples;Min_cycle;Max_cycle;Signal;HPM_P1;HPM_P2
2022/12/12 00:01:38;;;;;;;50.80;20.58;;;-4.20;99.90;;;;;;5097091;28;20297;-68
2022/12/12 00:04:05;;;;;;;83.88;25.60;;;-4.20;99.90;;;;;;5084599;28;20509;-67
2022/12/12 00:06:33;;;;;;;78.93;26.80;;;-4.30;99.90;;;;;;5074881;28;20368;-68
2022/12/12 00:09:00;;;;;;;67.30;23.60;;;-4.30;99.90;;;;;;5076761;28;20020;-68
2022/12/12 00:11:27;;;;;;;57.92;20.60;;;-4.30;99.90;;;;;;5076220;28;20024;-67
2022/12/12 00:13:55;;;;;;;72.05;22.02;;;-4.30;99.90;;;;;;5076979;28;20051;-67
2022/12/12 00:16:23;;;;;;;77.85;24.55;;;-4.40;99.90;;;;;;5079090;28;20031;-67
2022/12/12 00:18:51;;;;;;;65.75;24.02;;;-4.40;99.90;;;;;;5080133;28;20021;-68
2022/12/12 00:21:25;;;;;;;64.50;21.73;;;-4.40;99.90;;;;;;5079963;28;20079;-67
2022/12/12 00:23:52;;;;;;;59.47;23.23;;;-4.40;99.90;;;;;;5080216;28;20107;-68
2022/12/12 00:26:22;;;;;;;70.65;22.25;;;-4.40;99.90;;;;;;5080207;28;20025;-67
2022/12/12 00:28:50;;;;;;;57.97;20.20;;;-4.40;99.90;;;;;;5080412;28;20372;-67
2022/12/12 00:31:17;;;;;;;65.85;21.73;;;-4.50;99.90;;;;;;5078749;28;20016;-68
2022/12/12 00:33:47;;;;;;;72.35;23.38;;;-4.50;99.90;;;;;;5078924;28;20032;-67
2022/12/12 00:36:16;;;;;;;73.97;22.45;;;-4.50;99.90;;;;;;5079598;28;20021;-67
2022/12/12 00:38:43;;;;;;;55.95;19.25;;;-4.50;99.90;;;;;;5079737;28;20024;-67
2022/12/12 00:41:11;;;;;;;63.17;21.50;;;-4.60;99.90;;;;;;5079857;28;20078;-67
2022/12/12 00:43:38;;;;;;;57.33;19.38;;;-4.60;99.90;;;;;;5079816;28;20328;-67
2022/12/12 00:46:06;;;;;;;56.35;20.17;;;-4.60;99.90;;;;;;5079551;28;20025;-67
2022/12/12 00:48:35;;;;;;;64.15;21.60;;;-4.60;99.90;;;;;;5079509;28;20050;-67
2022/12/12 00:51:08;;;;;;;68.78;22.58;;;-4.60;99.90;;;;;;5079364;28;20329;-67
2022/12/12 00:53:36;;;;;;;79.65;26.33;;;-4.70;99.90;;;;;;5079639;28;20017;-68
2022/12/12 00:56:04;;;;;;;76.57;24.25;;;-4.70;99.90;;;;;;5079306;28;20028;-67
2022/12/12 00:58:32;;;;;;;65.95;24.27;;;-4.70;99.90;;;;;;5078717;28;20363;-67
2022/12/12 01:01:09;;;;;;;59.85;22.20;;;-4.70;99.90;;;;;;5079578;28;20020;-67
2022/12/12 01:03:38;;;;;;;61.63;20.88;;;-4.70;99.90;;;;;;5078363;28;20086;-68
2022/12/12 01:06:07;;;;;;;61.83;19.65;;;-4.80;99.90;;;;;;5087225;28;20451;-68
2022/12/12 01:08:35;;;;;;;53.63;19.42;;;-4.80;99.90;;;;;;5099362;28;20110;-67
2022/12/12 01:11:03;;;;;;;58.70;19.60;;;-4.90;99.90;;;;;;5099954;28;20020;-68
2022/12/12 01:13:31;;;;;;;57.53;18.13;;;-4.90;99.90;;;;;;5099341;28;20095;-67
2022/12/12 01:15:58;;;;;;;57.33;19.65;;;-4.90;99.90;;;;;;5099221;28;20028;-67
2022/12/12 01:18:25;;;;;;;59.63;20.70;;;-4.90;99.90;;;;;;5099784;28;20027;-67
2022/12/12 01:20:53;;;;;;;66.28;19.23;;;-5.00;99.90;;;;;;5081651;28;20344;-67
2022/12/12 01:23:20;;;;;;;58.80;20.25;;;-5.00;99.90;;;;;;5099658;28;20028;-67
2022/12/12 01:25:48;;;;;;;67.88;19.42;;;-5.10;99.90;;;;;;5099198;28;20024;-67
2022/12/12 01:28:15;;;;;;;59.70;21.02;;;-5.10;99.90;;;;;;5098980;28;20364;-67
2022/12/12 01:30:43;;;;;;;56.60;17.52;;;-5.10;99.90;;;;;;5098999;28;20019;-67
2022/12/12 01:33:10;;;;;;;56.50;19.38;;;-5.20;99.90;;;;;;5098869;28;20024;-68
2022/12/12 01:35:38;;;;;;;65.43;19.38;;;-5.20;99.90;;;;;;5099129;28;20040;-68
2022/12/12 01:38:05;;;;;;;61.22;21.17;;;-5.20;99.90;;;;;;5099147;28;20046;-67
2022/12/12 01:40:33;;;;;;;65.88;20.77;;;-5.20;99.90;;;;;;5099395;28;20020;-67
2022/12/12 01:43:01;;;;;;;66.70;20.27;;;-5.30;99.90;;;;;;5098782;28;20028;-67
2022/12/12 01:45:53;;;;;;;54.03;17.05;;;-5.30;99.90;;;;;;5098860;28;20032;-67
2022/12/12 01:48:22;;;;;;;56.35;18.92;;;-5.30;99.90;;;;;;5099192;28;20052;-68
2022/12/12 01:50:50;;;;;;;53.78;17.77;;;-5.40;99.90;;;;;;5098570;28;20031;-67
2022/12/12 01:53:18;;;;;;;67.25;21.75;;;-5.30;99.90;;;;;;5098564;28;20023;-67
2022/12/12 01:55:48;;;;;;;66.22;18.50;;;-5.40;99.90;;;;;;5098557;28;20461;-67
2022/12/12 01:58:16;;;;;;;59.75;19.33;;;-5.40;99.90;;;;;;5098516;28;20024;-67
2022/12/12 02:00:45;;;;;;;61.53;18.55;;;-5.40;99.90;;;;;;5098703;28;20027;-67
2022/12/12 02:03:13;;;;;;;45.65;17.08;;;-5.40;99.90;;;;;;5098365;28;20035;-68
2022/12/12 02:05:55;;;;;;;54.35;19.27;;;-5.50;99.90;;;;;;5098019;28;20075;-68
2022/12/12 02:08:23;;;;;;;63.40;18.63;;;-5.50;99.90;;;;;;5098200;28;20028;-67
2022/12/12 02:10:51;;;;;;;55.60;18.02;;;-5.50;99.90;;;;;;5098222;28;20016;-67
2022/12/12 02:13:24;;;;;;;52.72;17.05;;;-5.60;99.90;;;;;;5098171;28;20363;-68
2022/12/12 02:16:00;;;;;;;56.85;18.98;;;-5.60;99.90;;;;;;5098681;28;20020;-67
2022/12/12 02:18:51;;;;;;;54.88;17.95;;;-5.60;99.90;;;;;;5098081;28;20042;-67
2022/12/12 02:21:31;;;;;;;50.53;15.82;;;-5.70;99.90;;;;;;5069815;28;20102;-68
2022/12/12 02:24:11;;;;;;;51.03;18.52;;;-5.70;99.90;;;;;;5098526;28;20028;-67
2022/12/12 02:27:07;;;;;;;53.78;18.27;;;-5.80;99.90;;;;;;5098383;28;20347;-67
2022/12/12 02:29:52;;;;;;;49.20;16.58;;;-5.80;99.90;;;;;;5097858;28;20073;-67
2022/12/12 02:32:33;;;;;;;49.63;18.42;;;-5.80;99.90;;;;;;5098382;28;20099;-67
2022/12/12 02:35:12;;;;;;;58.65;17.80;;;-5.90;99.90;;;;;;5098589;28;20018;-67
2022/12/12 02:38:06;;;;;;;45.40;15.90;;;-5.90;99.90;;;;;;5096951;28;20452;-67
2022/12/12 02:40:56;;;;;;;48.72;16.85;;;-5.90;99.90;;;;;;5097683;28;20020;-68
2022/12/12 02:43:24;;;;;;;54.00;18.27;;;-6.00;99.90;;;;;;5097623;28;20048;-67
2022/12/12 02:46:16;;;;;;;50.30;17.58;;;-6.00;99.90;;;;;;5097525;28;20154;-67
2022/12/12 02:49:15;;;;;;;53.45;19.75;;;-6.00;99.90;;;;;;5096888;28;20111;-68
2022/12/12 02:51:43;;;;;;;46.95;16.10;;;-6.00;99.90;;;;;;5097559;28;20051;-67
2022/12/12 02:54:16;;;;;;;52.25;19.55;;;-6.10;99.90;;;;;;5097917;28;20043;-68
2022/12/12 02:56:59;;;;;;;53.22;16.58;;;-6.10;99.90;;;;;;5097413;28;20432;-67
2022/12/12 02:59:26;;;;;;;57.08;17.45;;;-6.10;99.90;;;;;;5097883;28;20443;-68
2022/12/12 03:02:30;;;;;;;49.22;17.23;;;-6.20;99.90;;;;;;5097985;28;20042;-67
2022/12/12 03:12:25;;;;;;;55.22;17.67;;;-6.20;99.90;;;;;;5077118;28;20454;-68
2022/12/12 03:15:52;;;;;;;49.65;15.10;;;-6.30;99.90;;;;;;5076989;28;20016;-67
2022/12/12 03:18:34;;;;;;;44.97;15.57;;;-6.30;99.90;;;;;;5035125;28;20029;-67
2022/12/12 03:21:20;;;;;;;56.53;16.77;;;-6.30;99.90;;;;;;5034914;28;20029;-67
2022/12/12 03:23:57;;;;;;;33.38;12.73;;;-6.40;99.90;;;;;;5048387;28;20043;-67
2022/12/12 03:26:37;;;;;;;48.53;15.93;;;-6.40;99.90;;;;;;5077200;28;20075;-68
2022/12/12 03:29:20;;;;;;;46.72;15.68;;;-6.40;99.90;;;;;;5058832;28;20376;-67
2022/12/12 03:31:54;;;;;;;45.63;16.08;;;-6.40;99.90;;;;;;5076608;28;20016;-67
2022/12/12 03:34:38;;;;;;;40.92;14.98;;;-6.40;99.90;;;;;;5077256;28;20104;-67
2022/12/12 03:37:19;;;;;;;45.83;14.93;;;-6.50;99.90;;;;;;5076490;28;20424;-67
2022/12/12 03:39:52;;;;;;;46.95;15.52;;;-6.50;99.90;;;;;;5077085;28;20104;-67
2022/12/12 03:42:31;;;;;;;47.40;16.23;;;-6.50;99.90;;;;;;5076470;28;20067;-67
2022/12/12 03:45:19;;;;;;;47.78;16.85;;;-6.50;99.90;;;;;;5077015;28;20039;-67
2022/12/12 03:47:52;;;;;;;50.05;13.95;;;-6.50;99.90;;;;;;5076316;28;20420;-67
2022/12/12 03:50:25;;;;;;;43.42;14.70;;;-6.60;99.90;;;;;;5077084;28;20025;-67
2022/12/12 03:53:03;;;;;;;42.10;14.48;;;-6.60;99.90;;;;;;5076331;28;20020;-67
2022/12/12 03:55:51;;;;;;;46.30;15.48;;;-6.60;99.90;;;;;;5058491;28;20162;-67
2022/12/12 03:58:48;;;;;;;44.47;13.32;;;-6.60;99.90;;;;;;5076508;28;20020;-67
2022/12/12 04:01:16;;;;;;;42.50;13.43;;;-6.60;99.90;;;;;;5058531;28;20052;-67
2022/12/12 04:04:16;;;;;;;51.30;16.42;;;-6.60;99.90;;;;;;5076325;28;20029;-67
2022/12/12 04:07:02;;;;;;;47.75;13.85;;;-6.60;99.90;;;;;;5089415;28;20498;-67
2022/12/12 04:15:26;;;;;;;43.10;14.80;;;-6.70;99.90;;;;;;5096945;28;20031;-67
2022/12/12 04:18:03;;;;;;;38.95;14.38;;;-6.70;99.90;;;;;;5097105;28;20028;-67
2022/12/12 04:23:55;;;;;;;39.60;12.70;;;-6.80;99.90;;;;;;5096614;28;20034;-67
2022/12/12 04:26:40;;;;;;;43.00;14.85;;;-6.80;99.90;;;;;;5096853;28;20016;-68
2022/12/12 04:29:45;;;;;;;46.75;13.77;;;-6.80;99.90;;;;;;5096992;28;20103;-67
2022/12/12 04:32:20;;;;;;;38.83;14.85;;;-6.80;99.90;;;;;;5096263;28;20046;-67
2022/12/12 04:35:08;;;;;;;53.00;15.85;;;-6.90;99.90;;;;;;5096757;28;20028;-67
2022/12/12 04:37:45;;;;;;;36.08;13.60;;;-6.90;99.90;;;;;;5096223;28;20039;-67
2022/12/12 04:40:20;;;;;;;42.83;14.93;;;-7.00;99.90;;;;;;5096148;28;20082;-67
2022/12/12 04:43:02;;;;;;;43.40;13.88;;;-7.00;99.90;;;;;;5096855;28;20103;-67
2022/12/12 04:45:43;;;;;;;46.03;14.73;;;-7.00;99.90;;;;;;5096653;28;20111;-67
2022/12/12 04:48:17;;;;;;;40.30;13.57;;;-7.00;99.90;;;;;;5096544;28;20028;-67
2022/12/12 04:50:51;;;;;;;44.65;15.20;;;-7.00;99.90;;;;;;5077991;28;20024;-67
2022/12/12 04:53:25;;;;;;;45.38;13.55;;;-7.00;99.90;;;;;;5096551;28;20106;-67
2022/12/12 04:55:59;;;;;;;37.22;13.27;;;-7.00;99.90;;;;;;5096023;28;20028;-67
2022/12/12 04:58:26;;;;;;;45.35;13.50;;;-7.00;99.90;;;;;;5095975;28;20020;-67
2022/12/12 05:01:17;;;;;;;45.33;14.65;;;-7.10;99.90;;;;;;5097774;28;20077;-67
2022/12/12 05:04:01;;;;;;;40.58;13.45;;;-7.00;99.90;;;;;;5100137;28;20024;-67
2022/12/12 05:06:43;;;;;;;37.40;14.10;;;-7.10;99.90;;;;;;5077987;28;20198;-68
2022/12/12 05:09:12;;;;;;;47.00;14.85;;;-7.10;99.90;;;;;;5079181;28;20072;-67
2022/12/12 05:11:41;;;;;;;41.28;14.07;;;-7.10;99.90;;;;;;5079068;28;20028;-67
2022/12/12 05:14:09;;;;;;;34.67;12.68;;;-7.10;99.90;;;;;;5079103;28;20444;-67
2022/12/12 05:16:52;;;;;;;37.90;13.10;;;-7.20;99.90;;;;;;5079320;28;20020;-67
2022/12/12 05:19:19;;;;;;;43.47;12.52;;;-7.20;99.90;;;;;;5078997;28;20028;-67
2022/12/12 05:21:48;;;;;;;36.42;14.27;;;-7.20;99.90;;;;;;5078935;28;20025;-67
2022/12/12 05:24:15;;;;;;;38.78;13.75;;;-7.20;99.90;;;;;;5078984;28;20029;-67
2022/12/12 05:26:43;;;;;;;37.55;14.10;;;-7.20;99.90;;;;;;5078817;28;20056;-67
2022/12/12 05:29:11;;;;;;;40.47;13.50;;;-7.20;99.90;;;;;;5079123;28;20066;-67
2022/12/12 05:31:38;;;;;;;42.70;13.25;;;-7.20;99.90;;;;;;5078801;28;20044;-67
2022/12/12 05:34:05;;;;;;;40.38;12.68;;;-7.30;99.90;;;;;;5078732;28;20048;-67
2022/12/12 05:36:33;;;;;;;35.53;12.75;;;-7.30;99.90;;;;;;5078661;28;20027;-67
2022/12/12 05:39:00;;;;;;;40.35;12.43;;;-7.30;99.90;;;;;;5078837;28;20103;-67
2022/12/12 05:41:28;;;;;;;31.65;12.23;;;-7.30;99.90;;;;;;5078649;28;20146;-67
2022/12/12 05:43:55;;;;;;;40.28;13.43;;;-7.20;99.90;;;;;;5078906;28;20455;-67
2022/12/12 05:46:23;;;;;;;40.42;13.23;;;-7.30;99.90;;;;;;5079071;28;20066;-67
2022/12/12 05:48:50;;;;;;;32.47;11.02;;;-7.30;99.90;;;;;;5079061;28;20027;-67
2022/12/12 05:51:19;;;;;;;33.90;13.25;;;-7.30;99.90;;;;;;5078324;28;20296;-67
2022/12/12 05:53:47;;;;;;;37.80;12.23;;;-7.30;99.90;;;;;;5078374;28;20435;-67
2022/12/12 05:56:14;;;;;;;36.03;13.65;;;-7.40;99.90;;;;;;5078845;28;20031;-67
2022/12/12 05:58:42;;;;;;;31.30;11.75;;;-7.40;99.90;;;;;;5078424;28;20074;-67
2022/12/12 06:01:10;;;;;;;34.13;11.00;;;-7.40;99.90;;;;;;5078764;28;20048;-67
2022/12/12 06:03:37;;;;;;;29.90;11.43;;;-7.40;99.90;;;;;;5078202;28;20024;-67
2022/12/12 06:06:05;;;;;;;42.88;13.15;;;-7.40;99.90;;;;;;5076774;28;20044;-67
2022/12/12 06:08:33;;;;;;;35.55;11.82;;;-7.50;99.90;;;;;;5078567;28;20031;-67
2022/12/12 06:11:05;;;;;;;40.08;12.40;;;-7.50;99.90;;;;;;5076785;28;20416;-67
2022/12/12 06:13:32;;;;;;;34.60;13.82;;;-7.50;99.90;;;;;;5077227;28;20031;-67
2022/12/12 06:15:59;;;;;;;34.60;12.85;;;-7.50;99.90;;;;;;5076761;28;20093;-67
2022/12/12 06:18:27;;;;;;;38.22;11.75;;;-7.50;99.90;;;;;;5077863;28;20025;-67
2022/12/12 06:21:06;;;;;;;38.08;11.60;;;-7.60;99.90;;;;;;5077947;28;20063;-67
2022/12/12 06:23:43;;;;;;;33.78;11.18;;;-7.60;99.90;;;;;;5077978;28;20310;-67
2022/12/12 06:26:13;;;;;;;36.38;10.95;;;-7.60;99.90;;;;;;5077680;28;20100;-67
2022/12/12 06:28:41;;;;;;;36.00;10.15;;;-7.60;99.90;;;;;;5077616;28;20345;-67
2022/12/12 06:31:09;;;;;;;35.80;12.07;;;-7.60;99.90;;;;;;5077618;28;20016;-67
2022/12/12 06:33:37;;;;;;;35.60;9.88;;;-7.60;99.90;;;;;;5077746;28;20048;-67
2022/12/12 06:36:15;;;;;;;30.83;11.02;;;-7.60;99.90;;;;;;5078004;28;20079;-67
2022/12/12 06:38:42;;;;;;;25.95;11.10;;;-7.60;99.90;;;;;;5077523;28;20024;-67
2022/12/12 06:41:14;;;;;;;33.17;10.65;;;-7.60;99.90;;;;;;5077393;28;20028;-67
2022/12/12 06:43:42;;;;;;;32.28;9.60;;;-7.60;99.90;;;;;;5077539;28;20025;-67
2022/12/12 06:46:18;;;;;;;34.17;11.27;;;-7.60;99.90;;;;;;5077313;28;20429;-67
2022/12/12 06:48:47;;;;;;;38.38;10.75;;;-7.60;99.90;;;;;;5077240;28;20033;-67
2022/12/12 06:51:17;;;;;;;32.17;10.38;;;-7.60;99.90;;;;;;5077145;28;20020;-67
2022/12/12 06:53:45;;;;;;;30.98;9.32;;;-7.70;99.90;;;;;;5077338;28;20432;-67
2022/12/12 06:56:24;;;;;;;34.78;10.50;;;-7.70;99.90;;;;;;5077685;28;20028;-67
2022/12/12 06:58:52;;;;;;;26.42;8.48;;;-7.70;99.90;;;;;;5077104;28;20024;-67
2022/12/12 07:01:21;;;;;;;33.67;10.13;;;-7.70;99.90;;;;;;5076982;28;20024;-67
2022/12/12 07:03:51;;;;;;;32.47;10.38;;;-7.70;99.90;;;;;;5076109;28;20329;-67
2022/12/12 07:06:21;;;;;;;32.40;10.77;;;-7.70;99.90;;;;;;5085894;28;20101;-67
2022/12/12 07:08:50;;;;;;;26.77;10.27;;;-7.80;99.90;;;;;;5097698;28;20111;-67
2022/12/12 07:11:21;;;;;;;26.17;10.70;;;-7.80;99.90;;;;;;5097675;28;20470;-68
2022/12/12 07:13:49;;;;;;;28.60;8.88;;;-7.80;99.90;;;;;;5097238;28;20024;-68
2022/12/12 07:16:18;;;;;;;30.83;10.77;;;-7.80;99.90;;;;;;5079099;28;20488;-67
2022/12/12 07:18:46;;;;;;;30.52;10.75;;;-7.80;99.90;;;;;;5097094;28;20425;-68
2022/12/12 07:21:16;;;;;;;29.70;9.32;;;-7.80;99.90;;;;;;5078997;28;20052;-68
2022/12/12 07:23:43;;;;;;;35.28;10.70;;;-7.80;99.90;;;;;;5078793;28;20412;-68
2022/12/12 07:26:16;;;;;;;27.65;10.70;;;-7.80;99.90;;;;;;5096919;28;20324;-68
2022/12/12 07:28:44;;;;;;;25.10;9.73;;;-7.80;99.90;;;;;;5096845;28;20020;-71
2022/12/12 07:31:17;;;;;;;28.40;9.38;;;-7.80;99.90;;;;;;5096848;28;20017;-69
2022/12/12 07:33:45;;;;;;;27.90;9.60;;;-7.80;99.90;;;;;;5097031;28;20023;-68
2022/12/12 07:36:14;;;;;;;27.90;10.48;;;-7.80;99.90;;;;;;5097262;28;20289;-75
2022/12/12 07:38:41;;;;;;;36.47;11.75;;;-7.80;99.90;;;;;;5097321;28;20028;-74
2022/12/12 07:41:13;;;;;;;24.05;8.43;;;-7.80;99.90;;;;;;5096972;28;20113;-75
2022/12/12 07:43:42;;;;;;;28.42;9.90;;;-7.80;99.90;;;;;;5079035;28;20074;-78
2022/12/12 07:46:11;;;;;;;26.65;9.18;;;-7.80;99.90;;;;;;5078762;28;20111;-74
2022/12/12 07:48:38;;;;;;;23.40;9.73;;;-7.80;99.90;;;;;;5078812;28;20324;-76
2022/12/12 07:51:06;;;;;;;32.05;9.05;;;-7.80;99.90;;;;;;5096891;28;20423;-76
2022/12/12 07:53:34;;;;;;;27.83;9.77;;;-7.70;99.90;;;;;;5096842;28;20024;-76
2022/12/12 07:56:08;;;;;;;36.00;12.50;;;-7.70;99.90;;;;;;5096915;28;20409;-77
2022/12/12 07:58:37;;;;;;;34.67;11.73;;;-7.80;99.90;;;;;;5096924;28;20032;-79
2022/12/12 08:01:22;;;;;;;29.30;11.00;;;-7.70;99.90;;;;;;5078737;28;20028;-78
2022/12/12 08:03:51;;;;;;;26.95;10.38;;;-7.70;99.90;;;;;;5096695;28;20031;-75
2022/12/12 08:06:21;;;;;;;29.73;10.40;;;-7.70;99.90;;;;;;5096386;28;20097;-73
2022/12/12 08:08:49;;;;;;;39.22;12.27;;;-7.70;99.90;;;;;;5096443;28;20032;-73
2022/12/12 08:11:20;;;;;;;31.08;13.18;;;-7.60;99.90;;;;;;5096737;28;20468;-73
2022/12/12 08:13:48;;;;;;;45.35;16.33;;;-7.60;99.90;;;;;;5096866;28;20024;-72
2022/12/12 08:16:21;;;;;;;46.55;15.82;;;-7.60;99.90;;;;;;5096400;28;20463;-72
2022/12/12 08:18:49;;;;;;;45.65;16.80;;;-7.60;99.90;;;;;;5096388;28;20024;-77
2022/12/12 08:21:18;;;;;;;41.05;16.60;;;-7.60;99.90;;;;;;5096429;28;20392;-70
2022/12/12 08:23:45;;;;;;;49.42;19.40;;;-7.50;99.90;;;;;;5096540;28;20028;-70
2022/12/12 08:26:16;;;;;;;45.53;17.55;;;-7.50;99.90;;;;;;5096300;28;20027;-70
2022/12/12 08:28:44;;;;;;;43.97;17.65;;;-7.50;99.90;;;;;;5078297;28;20020;-71
2022/12/12 08:31:16;;;;;;;39.05;14.52;;;-7.40;99.90;;;;;;5096783;28;20021;-69
2022/12/12 08:33:43;;;;;;;42.58;14.20;;;-7.40;99.90;;;;;;5096282;28;20032;-69
2022/12/12 08:36:23;;;;;;;44.55;14.38;;;-7.40;99.90;;;;;;5080875;28;20359;-70
2022/12/12 08:38:51;;;;;;;41.00;13.40;;;-7.40;99.90;;;;;;5100098;28;20078;-69
2022/12/12 08:41:19;;;;;;;36.22;12.82;;;-7.30;99.90;;;;;;5100583;28;20020;-71
2022/12/12 08:43:47;;;;;;;29.85;11.88;;;-7.30;99.90;;;;;;5082222;28;20020;-67
2022/12/12 08:46:17;;;;;;;36.22;11.07;;;-7.20;99.90;;;;;;5099930;28;20020;-67
2022/12/12 08:48:45;;;;;;;31.55;11.63;;;-7.20;99.90;;;;;;5100028;28;20108;-67
2022/12/12 08:51:14;;;;;;;30.83;12.52;;;-7.10;99.90;;;;;;5100210;28;20020;-68
2022/12/12 08:53:45;;;;;;;32.00;11.45;;;-7.10;99.90;;;;;;5099772;28;20078;-68
2022/12/12 08:56:12;;;;;;;36.80;13.50;;;-7.10;99.90;;;;;;5100246;28;20020;-67
2022/12/12 08:58:40;;;;;;;43.70;14.43;;;-7.10;99.90;;;;;;5081904;28;20079;-67
2022/12/12 09:01:16;;;;;;;40.17;14.10;;;-7.10;99.90;;;;;;5099633;28;20456;-67
2022/12/12 09:03:43;;;;;;;;;;;-7.00;99.90;;;;;;5100367;28;20428;-67
2022/12/12 09:06:11;;;;;;;35.65;11.55;;;-7.00;99.90;;;;;;5099762;28;19918;-68
2022/12/12 09:08:39;;;;;;;33.00;10.77;;;-7.00;99.90;;;;;;5100211;28;20024;-67
2022/12/12 09:11:07;;;;;;;28.95;11.55;;;-6.90;99.90;;;;;;5100042;28;20054;-67
2022/12/12 09:13:35;;;;;;;32.03;12.15;;;-6.90;99.90;;;;;;5099458;28;20016;-67
2022/12/12 09:16:03;;;;;;;28.60;10.65;;;-6.90;99.90;;;;;;5099400;28;20012;-67
2022/12/12 09:18:31;;;;;;;33.05;12.13;;;-6.80;99.90;;;;;;5099506;28;20050;-67
2022/12/12 09:20:58;;;;;;;31.67;10.27;;;-6.80;99.90;;;;;;5099216;28;20419;-68
2022/12/12 09:23:27;;;;;;;43.85;12.73;;;-6.80;99.90;;;;;;5099254;28;20024;-67
2022/12/12 09:25:54;;;;;;;35.58;11.90;;;-6.70;99.90;;;;;;5099193;28;20024;-67
2022/12/12 09:28:24;;;;;;;36.60;12.93;;;-6.60;99.90;;;;;;5099624;28;20294;-67
2022/12/12 09:30:51;;;;;;;29.10;10.55;;;-6.60;99.90;;;;;;5099064;28;20040;-67
2022/12/12 09:33:19;;;;;;;38.67;12.65;;;-6.60;99.90;;;;;;5099065;28;20024;-68
2022/12/12 09:35:46;;;;;;;32.92;12.18;;;-6.50;99.90;;;;;;5080969;28;20024;-68
2022/12/12 09:38:14;;;;;;;35.22;12.30;;;-6.40;99.90;;;;;;5099125;28;20034;-69
2022/12/12 09:40:56;;;;;;;33.00;10.93;;;-6.40;99.90;;;;;;5080924;28;20035;-67
2022/12/12 09:43:43;;;;;;;36.03;12.27;;;-6.30;99.90;;;;;;5080958;28;20073;-67
2022/12/12 09:46:23;;;;;;;;;;;-6.20;99.90;;;;;;5098888;28;20020;-67
2022/12/12 09:48:51;;;;;;;29.35;11.70;;;-6.20;99.90;;;;;;5098947;28;19908;-67
2022/12/12 09:51:24;;;;;;;36.53;13.10;;;-6.10;99.90;;;;;;5080653;28;20016;-68
2022/12/12 09:53:52;;;;;;;39.15;12.40;;;-6.10;99.90;;;;;;5080709;28;20107;-67
2022/12/12 09:56:30;;;;;;;35.80;14.13;;;-6.00;99.90;;;;;;5099133;28;20073;-67
2022/12/12 09:59:12;;;;;;;32.72;14.70;;;-5.90;99.90;;;;;;5099049;28;20031;-67
2022/12/12 10:02:09;;;;;;;32.53;12.50;;;-5.90;99.90;;;;;;5099008;28;20028;-68
2022/12/12 10:04:42;;;;;;;39.20;12.25;;;-5.80;99.90;;;;;;5098724;28;20035;-68
2022/12/12 10:07:41;;;;;;;38.72;13.82;;;-5.80;99.90;;;;;;5098468;28;20048;-67
2022/12/12 10:10:38;;;;;;;40.63;14.48;;;-5.70;99.90;;;;;;5098610;28;20420;-67
2022/12/12 10:13:14;;;;;;;31.65;12.55;;;-5.60;99.90;;;;;;5098888;28;20030;-68
2022/12/12 10:15:55;;;;;;;38.05;12.90;;;-5.60;99.90;;;;;;5080267;28;20059;-69
2022/12/12 10:18:46;;;;;;;35.25;13.13;;;-5.50;99.90;;;;;;5098885;28;20417;-68
2022/12/12 10:21:28;;;;;;;35.80;12.82;;;-5.50;99.90;;;;;;5080160;28;20055;-68
2022/12/12 10:24:25;;;;;;;41.03;14.80;;;-5.40;99.90;;;;;;5097994;28;20434;-69
2022/12/12 10:26:53;;;;;;;40.33;16.10;;;-5.30;99.90;;;;;;5087432;28;20040;-69
2022/12/12 10:29:25;;;;;;;46.92;17.70;;;-5.30;99.90;;;;;;5098484;28;20031;-70
2022/12/12 10:32:20;;;;;;;39.97;15.45;;;-5.20;99.90;;;;;;5097944;28;20343;-70
2022/12/12 10:35:14;;;;;;;44.03;14.52;;;-5.20;99.90;;;;;;5098133;28;20107;-70
2022/12/12 10:38:13;;;;;;;33.20;12.85;;;-5.10;99.90;;;;;;5097726;28;20024;-71
2022/12/12 10:40:58;;;;;;;42.00;16.75;;;-5.00;99.90;;;;;;5097657;28;20039;-70
2022/12/12 10:43:47;;;;;;;41.65;15.40;;;-5.00;99.90;;;;;;5097870;28;20035;-68
2022/12/12 10:46:51;;;;;;;48.38;16.10;;;-4.90;99.90;;;;;;5098205;28;20020;-68
2022/12/12 10:49:22;;;;;;;43.33;16.90;;;-4.90;99.90;;;;;;5098946;28;20020;-69
2022/12/12 10:51:51;;;;;;;46.15;16.27;;;-4.80;99.90;;;;;;5099113;28;20046;-69
2022/12/12 10:54:21;;;;;;;39.75;14.95;;;-4.70;99.90;;;;;;5080075;28;20017;-68
2022/12/12 10:57:14;;;;;;;41.33;15.73;;;-4.70;99.90;;;;;;5079510;28;20414;-69
2022/12/12 10:59:52;;;;;;;39.08;14.88;;;-4.60;99.90;;;;;;5097342;28;20020;-71
2022/12/12 11:02:38;;;;;;;44.70;14.85;;;-4.60;99.90;;;;;;5097422;28;20021;-71
2022/12/12 11:05:15;;;;;;;48.90;16.05;;;-4.50;99.90;;;;;;5079374;28;20090;-70
2022/12/12 11:08:03;;;;;;;37.00;13.57;;;-4.40;99.90;;;;;;5096900;28;20036;-69
2022/12/12 11:10:36;;;;;;;37.08;14.68;;;-4.30;99.90;;;;;;5097234;28;20027;-69
2022/12/12 11:13:15;;;;;;;35.95;14.52;;;-4.30;99.90;;;;;;5097713;28;20020;-68
2022/12/12 11:15:57;;;;;;;36.00;13.10;;;-4.20;99.90;;;;;;5079402;28;20024;-67
2022/12/12 11:18:25;;;;;;;37.50;14.60;;;-4.20;99.90;;;;;;5097214;28;20366;-67
2022/12/12 11:21:10;;;;;;;38.97;13.93;;;-4.20;99.90;;;;;;5097741;28;20354;-68
2022/12/12 11:23:48;;;;;;;33.78;13.75;;;-4.10;99.90;;;;;;5097610;28;20027;-68
2022/12/12 11:26:20;;;;;;;42.78;15.18;;;-4.10;99.90;;;;;;5096981;28;20115;-67
2022/12/12 11:29:01;;;;;;;41.45;14.32;;;-4.10;99.90;;;;;;5096945;28;20024;-68
2022/12/12 11:31:33;;;;;;;42.97;16.17;;;-4.00;99.90;;;;;;5096805;28;20065;-68
2022/12/12 11:34:05;;;;;;;41.97;15.07;;;-4.00;99.90;;;;;;5097079;28;20016;-67
2022/12/12 11:36:37;;;;;;;41.88;14.18;;;-3.90;99.90;;;;;;5096859;28;20412;-70
2022/12/12 11:39:27;;;;;;;40.25;15.32;;;-3.90;99.90;;;;;;5078893;28;20032;-69
2022/12/12 11:42:13;;;;;;;39.85;13.98;;;-3.80;99.90;;;;;;5096807;28;20101;-69
2022/12/12 11:44:42;;;;;;;34.58;13.95;;;-3.80;99.90;;;;;;5097287;28;20034;-70
2022/12/12 11:47:39;;;;;;;39.70;16.23;;;-3.80;99.90;;;;;;5096796;28;20428;-69
2022/12/12 11:50:17;;;;;;;;;;;-3.70;99.90;;;;;;5096973;28;20124;-70
2022/12/12 11:52:45;;;;;;;51.65;18.85;;;-3.70;99.90;;;;;;5096680;28;20327;-70
2022/12/12 11:55:25;;;;;;;39.83;15.27;;;-3.60;99.90;;;;;;5096561;28;20421;-70
2022/12/12 11:58:06;;;;;;;40.38;15.52;;;-3.60;99.90;;;;;;5096787;28;20035;-68
2022/12/12 12:00:56;;;;;;;41.10;16.17;;;-3.50;99.90;;;;;;5097127;28;20415;-68
2022/12/12 12:03:45;;;;;;;39.67;15.25;;;-3.50;99.90;;;;;;5095408;28;20481;-68
2022/12/12 12:06:38;;;;;;;42.72;13.13;;;-3.50;99.90;;;;;;5096432;28;20060;-68
2022/12/12 12:09:23;;;;;;;38.20;14.20;;;-3.40;99.90;;;;;;5097328;28;20112;-68
2022/12/12 12:12:12;;;;;;;36.05;13.98;;;-3.40;99.90;;;;;;5101152;28;20304;-70
2022/12/12 12:15:20;;;;;;;33.45;13.00;;;-3.30;99.90;;;;;;5100848;28;20047;-69
2022/12/12 12:17:57;;;;;;;;;;;-3.20;99.90;;;;;;5101231;28;20070;-69
2022/12/12 12:20:47;;;;;;;37.25;14.27;;;-3.20;99.90;;;;;;5100983;28;19908;-69
2022/12/12 12:23:20;;;;;;;43.70;16.30;;;-3.20;99.90;;;;;;5101134;28;20020;-70
2022/12/12 12:26:00;;;;;;;45.90;16.10;;;-3.10;99.90;;;;;;5100881;28;20024;-70
2022/12/12 12:28:52;;;;;;;43.72;14.55;;;-3.10;99.90;;;;;;5083288;28;20054;-69
2022/12/12 12:32:01;;;;;;;40.95;14.95;;;-3.10;99.90;;;;;;5100753;28;20412;-69
2022/12/12 12:34:54;;;;;;;30.60;12.40;;;-3.10;99.90;;;;;;5045203;28;20032;-69
2022/12/12 12:37:40;;;;;;;32.75;14.60;;;-3.00;99.90;;;;;;5100054;28;20066;-69
2022/12/12 12:40:23;;;;;;;32.10;11.40;;;-3.00;99.90;;;;;;5100293;28;20412;-69
2022/12/12 12:43:19;;;;;;;32.67;12.40;;;-2.90;99.90;;;;;;5100722;28;20081;-69
2022/12/12 12:46:05;;;;;;;31.30;11.97;;;-2.90;99.90;;;;;;5100503;28;20106;-71
2022/12/12 12:48:59;;;;;;;34.03;12.90;;;-2.80;99.90;;;;;;5100377;28;20270;-70
2022/12/12 12:51:39;;;;;;;30.33;13.45;;;-2.80;99.90;;;;;;5100379;28;20285;-70
2022/12/12 12:54:24;;;;;;;33.40;14.70;;;-2.70;99.90;;;;;;5100379;28;20150;-69
2022/12/12 12:57:11;;;;;;;38.13;15.00;;;-2.70;99.90;;;;;;5100398;28;20415;-69
2022/12/12 12:59:46;;;;;;;34.75;12.50;;;-2.70;99.90;;;;;;5099683;28;20059;-69
2022/12/12 13:02:55;;;;;;;30.17;10.95;;;-2.70;99.90;;;;;;5099853;28;20020;-69
2022/12/12 13:05:51;;;;;;;30.98;11.63;;;-2.70;99.90;;;;;;5086467;28;20035;-69
2022/12/12 13:08:42;;;;;;;30.52;12.02;;;-2.70;99.90;;;;;;5079179;28;20099;-69
2022/12/12 13:11:18;;;;;;;33.55;11.63;;;-2.70;99.90;;;;;;5079724;28;20023;-69
2022/12/12 13:13:53;;;;;;;34.40;13.52;;;-2.70;99.90;;;;;;5079341;28;20071;-69
2022/12/12 13:16:27;;;;;;;30.38;13.90;;;-2.60;99.90;;;;;;5079054;28;20096;-69
2022/12/12 13:19:27;;;;;;;35.70;14.60;;;-2.70;99.90;;;;;;5079102;28;20052;-69
2022/12/12 13:22:05;;;;;;;38.65;14.75;;;-2.60;99.90;;;;;;5078494;28;20044;-69
2022/12/12 13:24:40;;;;;;;28.10;12.30;;;-2.60;99.90;;;;;;5079534;28;20017;-69
2022/12/12 13:27:29;;;;;;;33.95;13.27;;;-2.60;99.90;;;;;;5079426;28;20028;-69